createdAt,value
2019-06-26T00:09:10.488Z,25.20
2019-06-26T00:22:17.731Z,25.20
2019-06-26T00:35:41.934Z,25.20
2019-06-26T00:49:04.998Z,25.20
2019-06-26T01:02:27.637Z,25.20
2019-06-26T01:15:50.451Z,25.20
2019-06-26T01:29:13.163Z,25.20
2019-06-26T01:42:36.113Z,25.20
2019-06-26T01:55:59.022Z,25.20
2019-06-26T02:09:21.594Z,25.20
2019-06-26T02:22:44.533Z,25.20
2019-06-26T02:36:07.391Z,25.20
2019-06-26T02:49:30.313Z,25.30
2019-06-26T03:02:52.872Z,25.30
2019-06-26T03:29:17.282Z,25.30
2019-06-26T03:42:24.684Z,25.40
2019-06-26T03:55:31.916Z,25.70
2019-06-26T04:08:39.141Z,25.70
2019-06-26T04:21:46.383Z,25.60
2019-06-26T04:34:54.480Z,25.60
2019-06-26T04:48:17.188Z,25.60
2019-06-26T05:01:39.931Z,25.70
2019-06-26T05:15:02.821Z,25.70
2019-06-26T05:28:25.612Z,25.70
2019-06-26T05:41:48.318Z,25.70
2019-06-26T05:55:11.257Z,25.70
2019-06-26T06:21:35.727Z,25.90
2019-06-26T06:34:43.013Z,25.60
2019-06-26T06:59:05.250Z,25.70
2019-06-26T07:12:27.824Z,25.70
2019-06-26T07:25:50.809Z,25.70
2019-06-26T07:39:13.553Z,25.70
2019-06-26T08:05:41.794Z,25.80
2019-06-26T08:18:45.111Z,25.70
2019-06-26T08:31:52.267Z,25.70
2019-06-26T08:44:59.408Z,25.80
2019-06-26T08:58:06.582Z,25.80
2019-06-26T09:11:13.721Z,25.80
2019-06-26T09:24:38.020Z,25.80
2019-06-26T09:38:00.676Z,25.80
2019-06-26T09:51:23.514Z,25.90
2019-06-26T10:04:46.395Z,25.90
2019-06-26T10:18:08.968Z,25.90
2019-06-26T10:31:31.759Z,25.90
2019-06-26T10:44:54.689Z,26.00
2019-06-26T10:58:17.931Z,26.00
2019-06-26T11:11:40.669Z,26.00
2019-06-26T11:25:03.119Z,26.00
2019-06-26T11:38:26.032Z,26.00
2019-06-26T11:51:48.801Z,26.00
2019-06-26T12:05:11.601Z,26.10
2019-06-26T12:18:34.381Z,26.10
2019-06-26T12:31:57.138Z,26.10
2019-06-26T12:45:20.066Z,26.10
2019-06-26T12:58:42.923Z,26.10
2019-06-26T13:12:05.705Z,26.10
2019-06-26T13:25:28.413Z,26.20
2019-06-26T13:38:51.356Z,26.10
2019-06-26T13:52:14.278Z,26.20
2019-06-26T14:05:36.871Z,26.20
2019-06-26T14:18:59.796Z,26.20
2019-06-26T14:32:22.550Z,26.20
2019-06-26T14:58:47.349Z,26.30
2019-06-26T15:11:54.626Z,26.20
2019-06-26T15:25:02.207Z,26.30
2019-06-26T15:38:09.478Z,26.30
2019-06-26T15:51:33.997Z,26.30
2019-06-26T16:04:56.803Z,26.30
2019-06-26T16:18:19.542Z,26.30
2019-06-26T16:44:44.131Z,26.20
2019-06-26T17:10:57.165Z,26.20
2019-06-26T17:24:05.593Z,26.20
2019-06-26T17:37:13.102Z,26.30
2019-06-26T17:50:37.290Z,26.30
2019-06-26T18:04:00.116Z,26.20
2019-06-26T18:17:23.120Z,26.20
2019-06-26T18:30:45.762Z,26.20
2019-06-26T18:44:08.557Z,26.30
2019-06-26T18:57:31.420Z,25.90
2019-06-26T19:10:54.112Z,25.80
2019-06-26T19:24:17.054Z,25.60
2019-06-26T19:37:39.819Z,25.40
2019-06-26T19:51:02.621Z,25.40
2019-06-26T20:04:25.513Z,24.90
2019-06-26T20:17:48.252Z,24.80
2019-06-26T20:44:13.109Z,24.80
2019-06-26T21:10:25.769Z,24.60
2019-06-26T21:23:33.761Z,24.60
2019-06-26T21:36:41.060Z,24.80
2019-06-26T21:49:48.379Z,24.70
2019-06-26T22:03:12.442Z,24.70
2019-06-26T22:16:35.300Z,24.80
2019-06-26T22:29:58.181Z,24.70
2019-06-26T22:43:20.898Z,24.70
2019-06-26T22:56:43.739Z,24.60
2019-06-26T23:10:06.700Z,24.50
2019-06-26T23:23:29.355Z,24.50
2019-06-26T23:36:52.146Z,24.40
2019-06-26T23:50:14.993Z,24.30
